createdAt,value
2023-02-22T00:03:32.632Z,4.57
2023-02-22T00:08:32.916Z,4.57
2023-02-22T00:13:32.570Z,4.07
2023-02-22T00:18:30.945Z,3.70
2023-02-22T00:23:30.623Z,4.23
2023-02-22T00:28:30.805Z,3.77
2023-02-22T00:33:30.433Z,4.00
2023-02-22T00:38:29.124Z,4.40
2023-02-22T00:43:27.384Z,4.97
2023-02-22T00:48:25.648Z,3.57
2023-02-22T00:53:26.352Z,4.87
2023-02-22T00:58:26.940Z,4.07
2023-02-22T01:03:25.212Z,5.10
2023-02-22T01:08:25.271Z,4.27
2023-02-22T01:13:23.508Z,4.50
2023-02-22T01:18:22.044Z,4.27
2023-02-22T01:23:20.441Z,3.37
2023-02-22T01:28:20.258Z,3.97
2023-02-22T01:33:21.242Z,4.10
2023-02-22T01:38:19.509Z,3.47
2023-02-22T01:43:28.220Z,4.27
2023-02-22T01:48:34.981Z,4.77
2023-02-22T01:53:38.108Z,3.93
2023-02-22T01:58:42.425Z,3.60
2023-02-22T02:03:42.076Z,3.40
2023-02-22T02:08:51.643Z,3.80
2023-02-22T02:13:55.186Z,4.17
2023-02-22T02:18:54.467Z,4.10
2023-02-22T02:24:19.142Z,4.30
2023-02-22T02:29:46.472Z,4.57
2023-02-22T02:34:51.788Z,4.70
2023-02-22T02:39:56.284Z,6.60
2023-02-22T02:44:59.513Z,4.30
2023-02-22T02:50:03.128Z,4.20
2023-02-22T02:55:03.636Z,4.20
2023-02-22T03:00:01.954Z,4.17
2023-02-22T03:05:20.881Z,5.07
2023-02-22T03:10:46.691Z,3.87
2023-02-22T03:15:54.897Z,4.67
2023-02-22T03:21:02.168Z,4.53
2023-02-22T03:26:05.817Z,4.27
2023-02-22T03:31:13.962Z,4.40
2023-02-22T03:36:19.833Z,4.63
2023-02-22T03:41:24.191Z,3.50
2023-02-22T03:46:24.666Z,4.23
2023-02-22T03:56:47.512Z,4.03
2023-02-22T04:01:46.116Z,4.30
2023-02-22T04:06:46.249Z,3.20
2023-02-22T04:11:45.509Z,4.07
2023-02-22T04:16:44.224Z,5.30
2023-02-22T04:21:43.284Z,5.47
2023-02-22T04:26:50.445Z,5.33
2023-02-22T04:31:50.550Z,4.23
2023-02-22T04:36:48.933Z,5.33
2023-02-22T04:41:49.263Z,4.60
2023-02-22T04:46:47.823Z,4.50
2023-02-22T04:51:47.537Z,5.20
2023-02-22T04:56:46.368Z,4.73
2023-02-22T05:01:45.899Z,4.77
2023-02-22T05:06:44.143Z,4.10
2023-02-22T05:11:42.239Z,4.10
2023-02-22T05:16:40.768Z,4.47
2023-02-22T05:21:40.551Z,5.80
2023-02-22T05:26:38.845Z,4.20
2023-02-22T05:31:37.241Z,5.80
2023-02-22T05:36:35.574Z,4.10
2023-02-22T05:41:35.027Z,6.73
2023-02-22T05:46:33.334Z,5.33
2023-02-22T05:51:31.637Z,5.30
2023-02-22T05:56:31.360Z,6.07
2023-02-22T06:01:31.000Z,4.77
2023-02-22T06:06:29.046Z,5.13
2023-02-22T06:11:27.333Z,5.77
2023-02-22T06:16:25.666Z,5.57
2023-02-22T06:21:25.320Z,4.63
2023-02-22T06:26:24.045Z,4.23
2023-02-22T06:31:22.512Z,5.33
2023-02-22T06:36:20.752Z,4.20
2023-02-22T06:41:20.425Z,4.47
2023-02-22T06:46:19.932Z,4.70
2023-02-22T06:51:20.187Z,5.07
2023-02-22T06:56:19.840Z,5.10
2023-02-22T07:01:18.531Z,6.47
2023-02-22T07:06:17.199Z,6.50
2023-02-22T07:11:15.665Z,5.80
2023-02-22T07:16:15.416Z,6.50
2023-02-22T07:21:13.641Z,5.93
2023-02-22T07:26:12.323Z,5.40
2023-02-22T07:31:10.559Z,5.20
2023-02-22T07:36:10.545Z,6.10
2023-02-22T07:41:08.871Z,6.50
2023-02-22T07:46:07.262Z,5.50
2023-02-22T07:51:06.134Z,5.20
2023-02-22T07:56:08.912Z,6.33
2023-02-22T08:01:07.214Z,7.67
2023-02-22T08:06:07.504Z,6.97
2023-02-22T08:11:07.239Z,7.10
2023-02-22T08:16:05.806Z,7.57
2023-02-22T08:21:04.064Z,9.43
2023-02-22T08:26:08.432Z,9.77
2023-02-22T08:31:07.930Z,10.00
2023-02-22T08:36:07.003Z,9.83
2023-02-22T08:41:07.030Z,7.47
2023-02-22T08:46:05.729Z,7.50
2023-02-22T08:51:04.149Z,7.10
2023-02-22T08:56:02.390Z,5.73
2023-02-22T09:01:02.144Z,6.10
2023-02-22T09:06:00.447Z,6.10
2023-02-22T09:10:58.695Z,5.63
2023-02-22T09:15:56.969Z,4.80
2023-02-22T09:20:56.738Z,7.13
2023-02-22T09:25:55.028Z,5.97
2023-02-22T09:30:53.329Z,5.33
2023-02-22T09:35:51.656Z,5.80
2023-02-22T09:40:55.865Z,6.37
2023-02-22T09:46:12.294Z,6.83
2023-02-22T09:51:16.051Z,6.27
2023-02-22T09:56:18.912Z,4.70
2023-02-22T10:01:28.356Z,4.33
2023-02-22T10:06:27.151Z,4.13
2023-02-22T10:11:40.115Z,4.60
2023-02-22T10:16:44.180Z,4.67
2023-02-22T10:22:04.936Z,4.80
2023-02-22T10:27:06.116Z,3.67
2023-02-22T10:32:06.197Z,3.97
2023-02-22T10:37:17.425Z,4.30
2023-02-22T10:42:17.004Z,4.33
2023-02-22T10:47:18.146Z,3.07
2023-02-22T10:52:23.652Z,3.83
2023-02-22T10:57:26.113Z,4.47
2023-02-22T11:02:29.034Z,3.40
2023-02-22T11:07:30.622Z,3.77
2023-02-22T11:12:33.784Z,3.90
2023-02-22T11:17:33.543Z,3.67
2023-02-22T11:22:39.015Z,4.50
2023-02-22T11:27:43.430Z,3.87
2023-02-22T11:32:47.164Z,3.80
2023-02-22T11:37:45.240Z,3.20
2023-02-22T11:42:44.954Z,3.53
2023-02-22T11:47:55.237Z,3.50
2023-02-22T11:53:03.760Z,3.70
2023-02-22T11:58:14.715Z,3.37
2023-02-22T12:03:34.492Z,3.57
2023-02-22T12:08:43.385Z,3.57
2023-02-22T12:13:55.967Z,2.83
2023-02-22T12:19:12.790Z,3.83
2023-02-22T12:24:14.603Z,3.10
2023-02-22T12:29:25.187Z,3.30
2023-02-22T12:34:32.567Z,2.90
2023-02-22T12:39:52.760Z,3.60
2023-02-22T12:45:00.330Z,3.73
2023-02-22T12:50:05.649Z,3.27
2023-02-22T12:55:12.140Z,4.20
2023-02-22T13:00:23.268Z,2.80
2023-02-22T13:05:21.429Z,3.00
2023-02-22T13:10:47.421Z,2.80
2023-02-22T13:15:55.151Z,3.77
2023-02-22T13:21:00.032Z,3.70
2023-02-22T13:26:04.560Z,3.07
2023-02-22T13:31:23.944Z,3.50
2023-02-22T13:36:34.584Z,4.33
2023-02-22T13:41:56.646Z,2.47
2023-02-22T13:47:36.468Z,3.83
2023-02-22T13:52:38.475Z,2.70
2023-02-22T13:57:40.402Z,3.33
2023-02-22T14:03:09.052Z,3.70
2023-02-22T14:08:08.047Z,2.87
2023-02-22T14:13:06.946Z,3.30
2023-02-22T14:18:07.530Z,3.07
2023-02-22T14:23:30.447Z,3.20
2023-02-22T14:28:39.762Z,2.63
2023-02-22T14:34:08.459Z,3.17
2023-02-22T14:39:27.051Z,3.33
2023-02-22T14:44:33.761Z,2.40
2023-02-22T14:49:38.189Z,5.30
2023-02-22T14:54:47.753Z,3.30
2023-02-22T14:59:54.098Z,3.50
2023-02-22T15:04:55.227Z,3.33
2023-02-22T15:09:55.988Z,3.03
2023-02-22T15:15:13.710Z,2.90
2023-02-22T15:20:17.835Z,3.67
2023-02-22T15:25:24.266Z,4.13
2023-02-22T15:30:26.936Z,3.20
2023-02-22T15:35:30.827Z,3.73
2023-02-22T15:40:33.302Z,3.40
2023-02-22T15:45:33.064Z,5.30
2023-02-22T15:50:34.018Z,2.80
2023-02-22T15:55:35.456Z,3.53
2023-02-22T16:00:38.192Z,4.70
2023-02-22T16:05:41.688Z,3.50
2023-02-22T16:10:41.414Z,2.53
2023-02-22T16:15:39.801Z,3.03
2023-02-22T16:20:40.065Z,3.77
2023-02-22T16:25:39.655Z,3.30
2023-02-22T16:30:40.079Z,3.40
2023-02-22T16:35:39.770Z,3.20
2023-02-22T16:40:44.681Z,3.50
2023-02-22T16:45:43.060Z,3.97
2023-02-22T16:50:43.382Z,3.53
2023-02-22T16:55:44.806Z,3.70
2023-02-22T17:00:43.606Z,3.43
2023-02-22T17:05:43.310Z,3.20
2023-02-22T17:10:41.577Z,3.30
2023-02-22T17:15:40.007Z,3.73
2023-02-22T17:20:38.332Z,3.90
2023-02-22T17:25:40.461Z,3.47
2023-02-22T17:30:39.904Z,3.80
2023-02-22T17:35:41.223Z,4.50
2023-02-22T17:40:41.530Z,3.93
2023-02-22T17:45:41.089Z,4.27
2023-02-22T17:50:40.635Z,4.10
2023-02-22T17:55:41.434Z,3.90
2023-02-22T18:00:39.688Z,4.60
2023-02-22T18:05:41.092Z,4.50
2023-02-22T18:10:42.392Z,4.60
2023-02-22T18:15:41.513Z,4.10
2023-02-22T18:20:44.526Z,3.80
2023-02-22T18:26:03.770Z,4.50
2023-02-22T18:31:09.343Z,3.50
2023-02-22T18:36:08.789Z,4.37
2023-02-22T18:41:10.069Z,6.00
2023-02-22T18:46:10.428Z,4.63
2023-02-22T18:51:10.424Z,4.30
2023-02-22T18:56:13.057Z,3.73
2023-02-22T19:01:17.860Z,4.23
2023-02-22T19:06:17.921Z,3.47
2023-02-22T19:11:19.419Z,4.60
2023-02-22T19:16:20.054Z,4.80
2023-02-22T19:21:18.938Z,3.60
2023-02-22T19:26:21.091Z,4.27
2023-02-22T19:31:21.570Z,3.93
2023-02-22T19:36:23.188Z,4.90
2023-02-22T19:41:24.484Z,5.27
2023-02-22T19:46:24.894Z,4.40
2023-02-22T19:51:25.586Z,4.63
2023-02-22T19:56:27.346Z,5.27
2023-02-22T20:01:27.898Z,4.17
2023-02-22T20:06:28.287Z,5.10
2023-02-22T20:11:28.428Z,3.63
2023-02-22T20:16:27.055Z,4.40
2023-02-22T20:21:29.635Z,4.67
2023-02-22T20:26:31.451Z,4.50
2023-02-22T20:31:30.653Z,5.00
2023-02-22T20:36:30.474Z,5.07
2023-02-22T20:41:31.686Z,5.83
2023-02-22T20:46:31.986Z,5.03
2023-02-22T20:51:30.841Z,4.17
2023-02-22T20:56:32.037Z,4.47
2023-02-22T21:01:30.915Z,5.70
2023-02-22T21:06:30.347Z,5.20
2023-02-22T21:11:32.141Z,5.80
2023-02-22T21:16:33.394Z,5.57
2023-02-22T21:21:32.508Z,5.07
2023-02-22T21:26:34.217Z,5.13
2023-02-22T21:31:33.355Z,4.43
2023-02-22T21:36:32.204Z,6.20
2023-02-22T21:41:34.098Z,4.93
2023-02-22T21:46:32.420Z,5.77
2023-02-22T21:51:32.708Z,6.40
2023-02-22T21:56:35.515Z,5.70
2023-02-22T22:01:36.032Z,6.57
2023-02-22T22:06:36.812Z,6.77
2023-02-22T22:11:36.806Z,6.00
2023-02-22T22:16:37.174Z,7.50
2023-02-22T22:21:35.446Z,7.60
2023-02-22T22:26:34.224Z,8.27
2023-02-22T22:31:34.381Z,7.73
2023-02-22T22:36:34.383Z,8.40
2023-02-22T22:41:34.000Z,7.53
2023-02-22T22:46:33.768Z,7.13
2023-02-22T22:57:14.434Z,8.40
2023-02-22T23:02:13.877Z,9.63
2023-02-22T23:07:13.431Z,10.47
2023-02-22T23:12:16.664Z,9.00
2023-02-22T23:17:30.939Z,9.60
2023-02-22T23:22:29.282Z,9.80
2023-02-22T23:27:28.366Z,9.90
2023-02-22T23:32:28.243Z,9.80
2023-02-22T23:37:26.646Z,11.80
2023-02-22T23:42:24.727Z,11.20
2023-02-22T23:47:22.839Z,11.80
2023-02-22T23:52:24.777Z,10.23
2023-02-22T23:57:24.510Z,10.83
